sensor_id;sensor_type;location;lat;lon;timestamp;temperature;humidity
21481;DHT22;10902;48.158;8.634;2024-01-27T00:01:34;2.30;99.90
21481;DHT22;10902;48.158;8.634;2024-01-27T00:04:20;2.50;99.90
21481;DHT22;10902;48.158;8.634;2024-01-27T00:07:05;2.70;99.90
21481;DHT22;10902;48.158;8.634;2024-01-27T00:09:51;2.70;99.90
21481;DHT22;10902;48.158;8.634;2024-01-27T00:12:37;2.80;99.90
21481;DHT22;10902;48.158;8.634;2024-01-27T00:15:23;2.80;99.90
21481;DHT22;10902;48.158;8.634;2024-01-27T00:18:08;2.70;99.90
21481;DHT22;10902;48.158;8.634;2024-01-27T00:20:54;2.60;99.90
21481;DHT22;10902;48.158;8.634;2024-01-27T00:23:39;2.40;99.90
21481;DHT22;10902;48.158;8.634;2024-01-27T00:26:26;2.00;99.90
21481;DHT22;10902;48.158;8.634;2024-01-27T00:29:12;1.70;99.90
21481;DHT22;10902;48.158;8.634;2024-01-27T00:31:57;1.60;99.90
21481;DHT22;10902;48.158;8.634;2024-01-27T00:34:43;1.30;99.90
21481;DHT22;10902;48.158;8.634;2024-01-27T00:37:29;1.30;99.90
21481;DHT22;10902;48.158;8.634;2024-01-27T00:40:15;1.20;99.90
21481;DHT22;10902;48.158;8.634;2024-01-27T00:43:04;1.30;99.90
21481;DHT22;10902;48.158;8.634;2024-01-27T00:45:50;1.30;99.90
21481;DHT22;10902;48.158;8.634;2024-01-27T00:48:35;1.40;99.90
21481;DHT22;10902;48.158;8.634;2024-01-27T00:51:21;1.40;99.90
21481;DHT22;10902;48.158;8.634;2024-01-27T00:54:07;1.40;99.90
21481;DHT22;10902;48.158;8.634;2024-01-27T00:56:52;1.50;99.90
21481;DHT22;10902;48.158;8.634;2024-01-27T00:59:38;1.50;99.90
21481;DHT22;10902;48.158;8.634;2024-01-27T01:02:24;1.50;99.90
21481;DHT22;10902;48.158;8.634;2024-01-27T01:05:09;1.50;99.90
21481;DHT22;10902;48.158;8.634;2024-01-27T01:07:55;1.40;99.90
21481;DHT22;10902;48.158;8.634;2024-01-27T01:10:41;1.30;99.90
21481;DHT22;10902;48.158;8.634;2024-01-27T01:13:26;1.30;99.90
21481;DHT22;10902;48.158;8.634;2024-01-27T01:16:12;1.20;99.90
21481;DHT22;10902;48.158;8.634;2024-01-27T01:18:58;1.20;99.90
21481;DHT22;10902;48.158;8.634;2024-01-27T01:21:43;1.00;99.90
21481;DHT22;10902;48.158;8.634;2024-01-27T01:24:30;1.00;99.90
21481;DHT22;10902;48.158;8.634;2024-01-27T01:27:15;1.10;99.90
21481;DHT22;10902;48.158;8.634;2024-01-27T01:30:04;1.10;99.90
21481;DHT22;10902;48.158;8.634;2024-01-27T01:32:50;1.00;99.90
21481;DHT22;10902;48.158;8.634;2024-01-27T01:35:36;1.00;99.90
21481;DHT22;10902;48.158;8.634;2024-01-27T01:38:23;0.90;99.90
21481;DHT22;10902;48.158;8.634;2024-01-27T01:41:08;0.80;99.90
21481;DHT22;10902;48.158;8.634;2024-01-27T01:43:54;0.60;99.90
21481;DHT22;10902;48.158;8.634;2024-01-27T01:46:39;0.50;99.90
21481;DHT22;10902;48.158;8.634;2024-01-27T01:49:26;0.50;99.90
21481;DHT22;10902;48.158;8.634;2024-01-27T01:52:12;0.60;99.90
21481;DHT22;10902;48.158;8.634;2024-01-27T01:54:57;0.50;99.90
21481;DHT22;10902;48.158;8.634;2024-01-27T01:57:43;0.50;99.90
21481;DHT22;10902;48.158;8.634;2024-01-27T02:00:29;0.40;99.90
21481;DHT22;10902;48.158;8.634;2024-01-27T02:03:15;0.40;99.90
21481;DHT22;10902;48.158;8.634;2024-01-27T02:06:01;0.40;99.90
21481;DHT22;10902;48.158;8.634;2024-01-27T02:08:47;0.30;99.90
21481;DHT22;10902;48.158;8.634;2024-01-27T02:11:33;0.40;99.90
21481;DHT22;10902;48.158;8.634;2024-01-27T02:14:18;0.30;99.90
21481;DHT22;10902;48.158;8.634;2024-01-27T02:17:04;0.20;99.90
21481;DHT22;10902;48.158;8.634;2024-01-27T02:19:51;0.30;99.90
21481;DHT22;10902;48.158;8.634;2024-01-27T02:22:36;0.10;99.90
21481;DHT22;10902;48.158;8.634;2024-01-27T02:25:22;0.00;99.90
21481;DHT22;10902;48.158;8.634;2024-01-27T02:28:08;-0.20;99.90
21481;DHT22;10902;48.158;8.634;2024-01-27T02:30:53;-0.40;99.90
21481;DHT22;10902;48.158;8.634;2024-01-27T02:33:39;-0.30;99.90
21481;DHT22;10902;48.158;8.634;2024-01-27T02:36:24;-0.20;99.90
21481;DHT22;10902;48.158;8.634;2024-01-27T02:39:10;-0.20;99.90
21481;DHT22;10902;48.158;8.634;2024-01-27T02:41:56;-0.10;99.90
21481;DHT22;10902;48.158;8.634;2024-01-27T02:44:41;-0.20;99.90
21481;DHT22;10902;48.158;8.634;2024-01-27T02:47:27;-0.20;99.90
21481;DHT22;10902;48.158;8.634;2024-01-27T02:50:12;-0.20;99.90
21481;DHT22;10902;48.158;8.634;2024-01-27T02:52:58;-0.30;99.90
21481;DHT22;10902;48.158;8.634;2024-01-27T02:55:44;-0.30;99.90
21481;DHT22;10902;48.158;8.634;2024-01-27T02:58:30;-0.40;99.90
21481;DHT22;10902;48.158;8.634;2024-01-27T03:01:15;-0.60;99.90
21481;DHT22;10902;48.158;8.634;2024-01-27T03:04:01;-0.80;99.90
21481;DHT22;10902;48.158;8.634;2024-01-27T03:06:47;-0.80;99.90
21481;DHT22;10902;48.158;8.634;2024-01-27T03:09:33;-0.90;99.90
21481;DHT22;10902;48.158;8.634;2024-01-27T03:12:19;-0.90;99.90
21481;DHT22;10902;48.158;8.634;2024-01-27T03:15:05;-1.00;99.90
21481;DHT22;10902;48.158;8.634;2024-01-27T03:17:50;-1.00;99.90
21481;DHT22;10902;48.158;8.634;2024-01-27T03:20:36;-1.00;99.90
21481;DHT22;10902;48.158;8.634;2024-01-27T03:23:22;-1.00;99.90
21481;DHT22;10902;48.158;8.634;2024-01-27T03:26:07;-1.20;99.90
21481;DHT22;10902;48.158;8.634;2024-01-27T03:28:53;-1.30;99.90
21481;DHT22;10902;48.158;8.634;2024-01-27T03:31:38;-1.50;99.90
21481;DHT22;10902;48.158;8.634;2024-01-27T03:34:25;-1.60;99.90
21481;DHT22;10902;48.158;8.634;2024-01-27T03:37:12;-1.70;99.90
21481;DHT22;10902;48.158;8.634;2024-01-27T03:39:58;-1.70;99.90
21481;DHT22;10902;48.158;8.634;2024-01-27T03:42:43;-1.60;99.90
21481;DHT22;10902;48.158;8.634;2024-01-27T03:45:29;-1.50;99.90
21481;DHT22;10902;48.158;8.634;2024-01-27T03:48:14;-1.50;99.90
21481;DHT22;10902;48.158;8.634;2024-01-27T03:51:00;-1.60;99.90
21481;DHT22;10902;48.158;8.634;2024-01-27T03:53:46;-1.70;99.90
21481;DHT22;10902;48.158;8.634;2024-01-27T03:56:31;-1.70;99.90
21481;DHT22;10902;48.158;8.634;2024-01-27T03:59:17;-1.60;99.90
21481;DHT22;10902;48.158;8.634;2024-01-27T04:02:03;-1.60;99.90
21481;DHT22;10902;48.158;8.634;2024-01-27T04:04:49;-1.60;99.90
21481;DHT22;10902;48.158;8.634;2024-01-27T04:07:35;-1.60;99.90
21481;DHT22;10902;48.158;8.634;2024-01-27T04:10:21;-1.60;99.90
21481;DHT22;10902;48.158;8.634;2024-01-27T04:13:07;-1.60;99.90
21481;DHT22;10902;48.158;8.634;2024-01-27T04:15:53;-1.70;99.90
21481;DHT22;10902;48.158;8.634;2024-01-27T04:18:39;-1.70;99.90
21481;DHT22;10902;48.158;8.634;2024-01-27T04:21:25;-1.70;99.90
21481;DHT22;10902;48.158;8.634;2024-01-27T04:24:10;-1.70;99.90
21481;DHT22;10902;48.158;8.634;2024-01-27T04:26:56;-1.80;99.90
21481;DHT22;10902;48.158;8.634;2024-01-27T04:29:42;-1.90;99.90
21481;DHT22;10902;48.158;8.634;2024-01-27T04:32:28;-1.90;99.90
21481;DHT22;10902;48.158;8.634;2024-01-27T04:35:13;-1.80;99.90
21481;DHT22;10902;48.158;8.634;2024-01-27T04:37:59;-1.80;99.90
21481;DHT22;10902;48.158;8.634;2024-01-27T04:40:45;-1.90;99.90
21481;DHT22;10902;48.158;8.634;2024-01-27T04:43:30;-1.90;99.90
21481;DHT22;10902;48.158;8.634;2024-01-27T04:46:16;-1.90;99.90
21481;DHT22;10902;48.158;8.634;2024-01-27T04:49:01;-1.90;99.90
21481;DHT22;10902;48.158;8.634;2024-01-27T04:51:47;-1.90;99.90
21481;DHT22;10902;48.158;8.634;2024-01-27T04:54:32;-2.10;99.90
21481;DHT22;10902;48.158;8.634;2024-01-27T04:57:18;-2.40;99.90
21481;DHT22;10902;48.158;8.634;2024-01-27T05:00:04;-2.60;99.90
21481;DHT22;10902;48.158;8.634;2024-01-27T05:02:52;-2.70;99.90
21481;DHT22;10902;48.158;8.634;2024-01-27T05:05:40;-2.80;99.90
21481;DHT22;10902;48.158;8.634;2024-01-27T05:08:26;-3.00;99.90
21481;DHT22;10902;48.158;8.634;2024-01-27T05:11:11;-2.90;99.90
21481;DHT22;10902;48.158;8.634;2024-01-27T05:13:58;-2.60;99.90
21481;DHT22;10902;48.158;8.634;2024-01-27T05:16:43;-2.20;99.90
21481;DHT22;10902;48.158;8.634;2024-01-27T05:19:29;-2.10;99.90
21481;DHT22;10902;48.158;8.634;2024-01-27T05:22:14;-2.10;99.90
21481;DHT22;10902;48.158;8.634;2024-01-27T05:25:00;-2.10;99.90
21481;DHT22;10902;48.158;8.634;2024-01-27T05:27:46;-2.10;99.90
21481;DHT22;10902;48.158;8.634;2024-01-27T05:30:31;-2.00;99.90
21481;DHT22;10902;48.158;8.634;2024-01-27T05:33:17;-1.90;99.90
21481;DHT22;10902;48.158;8.634;2024-01-27T05:36:03;-1.80;99.90
21481;DHT22;10902;48.158;8.634;2024-01-27T05:38:48;-1.60;99.90
21481;DHT22;10902;48.158;8.634;2024-01-27T05:41:34;-1.40;99.90
21481;DHT22;10902;48.158;8.634;2024-01-27T05:44:19;-1.40;99.90
21481;DHT22;10902;48.158;8.634;2024-01-27T05:47:05;-1.40;99.90
21481;DHT22;10902;48.158;8.634;2024-01-27T05:49:51;-1.30;99.90
21481;DHT22;10902;48.158;8.634;2024-01-27T05:52:36;-1.20;99.90
21481;DHT22;10902;48.158;8.634;2024-01-27T05:55:22;-1.20;99.90
21481;DHT22;10902;48.158;8.634;2024-01-27T05:58:08;-1.10;99.90
21481;DHT22;10902;48.158;8.634;2024-01-27T06:00:53;-1.10;99.90
21481;DHT22;10902;48.158;8.634;2024-01-27T06:03:43;-1.00;99.90
21481;DHT22;10902;48.158;8.634;2024-01-27T06:06:29;-0.90;99.90
21481;DHT22;10902;48.158;8.634;2024-01-27T06:09:14;-1.00;99.90
21481;DHT22;10902;48.158;8.634;2024-01-27T06:12:00;-1.20;99.90
21481;DHT22;10902;48.158;8.634;2024-01-27T06:14:46;-1.30;99.90
21481;DHT22;10902;48.158;8.634;2024-01-27T06:17:31;-1.50;99.90
21481;DHT22;10902;48.158;8.634;2024-01-27T06:20:17;-1.60;99.90
21481;DHT22;10902;48.158;8.634;2024-01-27T06:23:04;-1.40;99.90
21481;DHT22;10902;48.158;8.634;2024-01-27T06:25:49;-1.50;99.90
21481;DHT22;10902;48.158;8.634;2024-01-27T06:28:35;-1.60;99.90
21481;DHT22;10902;48.158;8.634;2024-01-27T06:31:21;-1.60;99.90
21481;DHT22;10902;48.158;8.634;2024-01-27T06:34:07;-1.50;99.90
21481;DHT22;10902;48.158;8.634;2024-01-27T06:36:53;-1.30;99.90
21481;DHT22;10902;48.158;8.634;2024-01-27T06:39:39;-1.30;99.90
21481;DHT22;10902;48.158;8.634;2024-01-27T06:42:24;-1.30;99.90
21481;DHT22;10902;48.158;8.634;2024-01-27T06:45:10;-1.30;99.90
21481;DHT22;10902;48.158;8.634;2024-01-27T06:47:55;-1.40;99.90
21481;DHT22;10902;48.158;8.634;2024-01-27T06:50:41;-1.50;99.90
21481;DHT22;10902;48.158;8.634;2024-01-27T06:53:27;-1.40;99.90
21481;DHT22;10902;48.158;8.634;2024-01-27T06:56:12;-1.50;99.90
21481;DHT22;10902;48.158;8.634;2024-01-27T06:58:58;-1.40;99.90
21481;DHT22;10902;48.158;8.634;2024-01-27T07:01:50;-1.20;99.90
21481;DHT22;10902;48.158;8.634;2024-01-27T07:04:36;-1.00;99.90
21481;DHT22;10902;48.158;8.634;2024-01-27T07:07:28;-1.00;99.90
21481;DHT22;10902;48.158;8.634;2024-01-27T07:10:14;-0.90;99.90
21481;DHT22;10902;48.158;8.634;2024-01-27T07:13:00;-0.90;99.90
21481;DHT22;10902;48.158;8.634;2024-01-27T07:15:45;-0.80;99.90
21481;DHT22;10902;48.158;8.634;2024-01-27T07:18:31;-0.90;99.90
21481;DHT22;10902;48.158;8.634;2024-01-27T07:21:17;-0.90;99.90
21481;DHT22;10902;48.158;8.634;2024-01-27T07:24:02;-1.00;99.90
21481;DHT22;10902;48.158;8.634;2024-01-27T07:26:48;-1.00;99.90
21481;DHT22;10902;48.158;8.634;2024-01-27T07:29:34;-1.00;99.90
21481;DHT22;10902;48.158;8.634;2024-01-27T07:32:19;-1.00;99.90
21481;DHT22;10902;48.158;8.634;2024-01-27T07:35:05;-1.00;99.90
21481;DHT22;10902;48.158;8.634;2024-01-27T07:37:51;-0.90;99.90
21481;DHT22;10902;48.158;8.634;2024-01-27T07:40:37;-0.90;99.90
21481;DHT22;10902;48.158;8.634;2024-01-27T07:43:25;-1.00;99.90
21481;DHT22;10902;48.158;8.634;2024-01-27T07:46:10;-1.00;99.90
21481;DHT22;10902;48.158;8.634;2024-01-27T07:48:56;-0.90;99.90
21481;DHT22;10902;48.158;8.634;2024-01-27T07:51:41;-0.90;99.90
21481;DHT22;10902;48.158;8.634;2024-01-27T07:54:27;-0.80;99.90
21481;DHT22;10902;48.158;8.634;2024-01-27T07:57:12;-0.80;99.90
21481;DHT22;10902;48.158;8.634;2024-01-27T07:59:58;-0.90;99.90
21481;DHT22;10902;48.158;8.634;2024-01-27T08:02:44;-1.00;99.90
21481;DHT22;10902;48.158;8.634;2024-01-27T08:05:29;-0.90;99.90
21481;DHT22;10902;48.158;8.634;2024-01-27T08:08:15;-1.00;99.90
21481;DHT22;10902;48.158;8.634;2024-01-27T08:11:01;-0.90;99.90
21481;DHT22;10902;48.158;8.634;2024-01-27T08:13:46;-0.50;99.90
21481;DHT22;10902;48.158;8.634;2024-01-27T08:16:32;-0.50;99.90
21481;DHT22;10902;48.158;8.634;2024-01-27T08:19:17;-0.40;99.90
21481;DHT22;10902;48.158;8.634;2024-01-27T08:22:05;-0.40;99.90
21481;DHT22;10902;48.158;8.634;2024-01-27T08:24:51;-0.40;99.90
21481;DHT22;10902;48.158;8.634;2024-01-27T08:27:36;-0.40;99.90
21481;DHT22;10902;48.158;8.634;2024-01-27T08:30:22;-0.40;99.90
21481;DHT22;10902;48.158;8.634;2024-01-27T08:33:07;-0.40;99.90
21481;DHT22;10902;48.158;8.634;2024-01-27T08:35:53;-0.40;99.90
21481;DHT22;10902;48.158;8.634;2024-01-27T08:38:39;-0.40;99.90
21481;DHT22;10902;48.158;8.634;2024-01-27T08:41:24;-0.60;99.90
21481;DHT22;10902;48.158;8.634;2024-01-27T08:44:10;-0.70;99.90
21481;DHT22;10902;48.158;8.634;2024-01-27T08:46:55;-0.80;99.90
21481;DHT22;10902;48.158;8.634;2024-01-27T08:49:41;-1.00;99.90
21481;DHT22;10902;48.158;8.634;2024-01-27T08:52:26;-0.80;99.90
21481;DHT22;10902;48.158;8.634;2024-01-27T08:55:12;-0.50;99.90
21481;DHT22;10902;48.158;8.634;2024-01-27T08:57:58;-0.50;99.90
21481;DHT22;10902;48.158;8.634;2024-01-27T09:00:43;-0.30;99.90
21481;DHT22;10902;48.158;8.634;2024-01-27T09:03:29;-0.60;99.90
21481;DHT22;10902;48.158;8.634;2024-01-27T09:06:14;-0.60;99.90
21481;DHT22;10902;48.158;8.634;2024-01-27T09:09:00;-0.20;99.90
21481;DHT22;10902;48.158;8.634;2024-01-27T09:11:46;-0.10;99.90
21481;DHT22;10902;48.158;8.634;2024-01-27T09:14:32;-0.30;99.90
21481;DHT22;10902;48.158;8.634;2024-01-27T09:17:19;-0.30;99.90
21481;DHT22;10902;48.158;8.634;2024-01-27T09:20:05;-0.30;99.90
21481;DHT22;10902;48.158;8.634;2024-01-27T09:22:51;-0.40;99.90
21481;DHT22;10902;48.158;8.634;2024-01-27T09:25:37;-0.10;99.90
21481;DHT22;10902;48.158;8.634;2024-01-27T09:28:22;0.40;99.90
21481;DHT22;10902;48.158;8.634;2024-01-27T09:31:12;0.80;99.90
21481;DHT22;10902;48.158;8.634;2024-01-27T09:33:58;0.90;99.90
21481;DHT22;10902;48.158;8.634;2024-01-27T09:36:43;0.90;99.90
21481;DHT22;10902;48.158;8.634;2024-01-27T09:39:29;1.10;99.90
21481;DHT22;10902;48.158;8.634;2024-01-27T09:42:15;1.30;99.90
21481;DHT22;10902;48.158;8.634;2024-01-27T09:45:02;1.10;99.90
21481;DHT22;10902;48.158;8.634;2024-01-27T09:47:49;1.00;99.90
21481;DHT22;10902;48.158;8.634;2024-01-27T09:50:37;1.30;99.90
21481;DHT22;10902;48.158;8.634;2024-01-27T09:53:23;1.30;99.90
21481;DHT22;10902;48.158;8.634;2024-01-27T09:56:09;0.80;99.90
21481;DHT22;10902;48.158;8.634;2024-01-27T09:58:55;1.20;99.90
21481;DHT22;10902;48.158;8.634;2024-01-27T10:01:41;1.50;99.90
21481;DHT22;10902;48.158;8.634;2024-01-27T10:04:27;1.30;99.90
21481;DHT22;10902;48.158;8.634;2024-01-27T10:07:14;1.50;99.90
21481;DHT22;10902;48.158;8.634;2024-01-27T10:09:59;1.80;99.90
21481;DHT22;10902;48.158;8.634;2024-01-27T10:12:46;1.70;99.90
21481;DHT22;10902;48.158;8.634;2024-01-27T10:15:34;1.60;99.90
21481;DHT22;10902;48.158;8.634;2024-01-27T10:18:19;1.90;99.90
21481;DHT22;10902;48.158;8.634;2024-01-27T10:21:17;1.80;99.90
21481;DHT22;10902;48.158;8.634;2024-01-27T10:24:08;2.30;99.90
21481;DHT22;10902;48.158;8.634;2024-01-27T10:27:02;3.00;99.90
21481;DHT22;10902;48.158;8.634;2024-01-27T10:29:53;2.60;99.90
21481;DHT22;10902;48.158;8.634;2024-01-27T10:32:39;3.00;99.90
21481;DHT22;10902;48.158;8.634;2024-01-27T10:35:25;3.80;99.90
21481;DHT22;10902;48.158;8.634;2024-01-27T10:38:10;4.00;99.90
21481;DHT22;10902;48.158;8.634;2024-01-27T10:40:56;4.20;99.90
21481;DHT22;10902;48.158;8.634;2024-01-27T10:43:41;4.40;99.90
21481;DHT22;10902;48.158;8.634;2024-01-27T10:46:28;4.50;99.90
21481;DHT22;10902;48.158;8.634;2024-01-27T10:49:18;4.10;99.90
21481;DHT22;10902;48.158;8.634;2024-01-27T10:52:09;4.30;99.90
21481;DHT22;10902;48.158;8.634;2024-01-27T10:55:01;4.60;99.90
21481;DHT22;10902;48.158;8.634;2024-01-27T10:57:49;5.40;99.90
21481;DHT22;10902;48.158;8.634;2024-01-27T11:00:36;6.50;99.90
21481;DHT22;10902;48.158;8.634;2024-01-27T11:03:22;7.00;99.90
21481;DHT22;10902;48.158;8.634;2024-01-27T11:06:09;8.30;99.90
21481;DHT22;10902;48.158;8.634;2024-01-27T11:08:56;9.40;99.90
21481;DHT22;10902;48.158;8.634;2024-01-27T11:11:43;10.90;99.90
21481;DHT22;10902;48.158;8.634;2024-01-27T11:14:29;10.50;99.90
21481;DHT22;10902;48.158;8.634;2024-01-27T11:17:15;11.10;99.90
21481;DHT22;10902;48.158;8.634;2024-01-27T11:20:04;11.60;99.90
21481;DHT22;10902;48.158;8.634;2024-01-27T11:22:51;11.80;99.90
21481;DHT22;10902;48.158;8.634;2024-01-27T11:25:37;12.20;99.90
21481;DHT22;10902;48.158;8.634;2024-01-27T11:28:25;11.30;99.90
21481;DHT22;10902;48.158;8.634;2024-01-27T11:31:11;11.90;99.90
21481;DHT22;10902;48.158;8.634;2024-01-27T11:33:58;13.00;99.90
21481;DHT22;10902;48.158;8.634;2024-01-27T11:36:44;13.60;99.90
21481;DHT22;10902;48.158;8.634;2024-01-27T11:39:30;14.30;99.90
21481;DHT22;10902;48.158;8.634;2024-01-27T11:42:16;14.20;99.90
21481;DHT22;10902;48.158;8.634;2024-01-27T11:45:03;14.10;99.90
21481;DHT22;10902;48.158;8.634;2024-01-27T11:47:51;13.90;99.90
21481;DHT22;10902;48.158;8.634;2024-01-27T11:50:36;12.60;99.90
21481;DHT22;10902;48.158;8.634;2024-01-27T11:53:23;12.70;99.90
21481;DHT22;10902;48.158;8.634;2024-01-27T11:56:09;12.40;99.90
21481;DHT22;10902;48.158;8.634;2024-01-27T11:58:55;11.90;99.90
21481;DHT22;10902;48.158;8.634;2024-01-27T12:01:40;11.80;99.90
21481;DHT22;10902;48.158;8.634;2024-01-27T12:04:26;12.00;99.90
21481;DHT22;10902;48.158;8.634;2024-01-27T12:07:12;12.50;99.90
21481;DHT22;10902;48.158;8.634;2024-01-27T12:09:58;12.60;99.90
21481;DHT22;10902;48.158;8.634;2024-01-27T12:12:44;13.30;99.90
21481;DHT22;10902;48.158;8.634;2024-01-27T12:15:30;13.50;99.90
21481;DHT22;10902;48.158;8.634;2024-01-27T12:18:15;13.70;99.90
21481;DHT22;10902;48.158;8.634;2024-01-27T12:21:01;14.00;99.90
21481;DHT22;10902;48.158;8.634;2024-01-27T12:23:57;13.90;99.90
21481;DHT22;10902;48.158;8.634;2024-01-27T12:26:43;14.10;99.90
21481;DHT22;10902;48.158;8.634;2024-01-27T12:29:29;14.00;99.90
21481;DHT22;10902;48.158;8.634;2024-01-27T12:32:15;14.20;99.90
21481;DHT22;10902;48.158;8.634;2024-01-27T12:35:08;14.50;99.90
21481;DHT22;10902;48.158;8.634;2024-01-27T12:37:54;14.30;99.90
21481;DHT22;10902;48.158;8.634;2024-01-27T12:40:39;14.00;99.90
21481;DHT22;10902;48.158;8.634;2024-01-27T12:43:25;13.80;99.90
21481;DHT22;10902;48.158;8.634;2024-01-27T12:46:11;13.70;99.90
21481;DHT22;10902;48.158;8.634;2024-01-27T12:48:57;13.70;99.90
21481;DHT22;10902;48.158;8.634;2024-01-27T12:51:43;13.60;99.90
21481;DHT22;10902;48.158;8.634;2024-01-27T12:54:31;14.20;99.90
21481;DHT22;10902;48.158;8.634;2024-01-27T12:57:17;14.70;99.90
21481;DHT22;10902;48.158;8.634;2024-01-27T13:00:04;15.30;99.90
21481;DHT22;10902;48.158;8.634;2024-01-27T13:02:55;15.40;99.90
21481;DHT22;10902;48.158;8.634;2024-01-27T13:05:40;15.20;99.90
21481;DHT22;10902;48.158;8.634;2024-01-27T13:08:26;14.70;99.90
21481;DHT22;10902;48.158;8.634;2024-01-27T13:11:12;14.60;99.90
21481;DHT22;10902;48.158;8.634;2024-01-27T13:13:58;14.70;99.90
21481;DHT22;10902;48.158;8.634;2024-01-27T13:16:44;14.90;99.90
21481;DHT22;10902;48.158;8.634;2024-01-27T13:19:29;15.20;99.90
21481;DHT22;10902;48.158;8.634;2024-01-27T13:22:16;15.60;99.90
21481;DHT22;10902;48.158;8.634;2024-01-27T13:25:01;15.50;99.90
21481;DHT22;10902;48.158;8.634;2024-01-27T13:27:49;15.50;99.90
21481;DHT22;10902;48.158;8.634;2024-01-27T13:30:35;15.20;99.90
21481;DHT22;10902;48.158;8.634;2024-01-27T13:33:21;15.50;99.90
21481;DHT22;10902;48.158;8.634;2024-01-27T13:36:07;15.80;99.90
21481;DHT22;10902;48.158;8.634;2024-01-27T13:38:53;15.70;99.90
21481;DHT22;10902;48.158;8.634;2024-01-27T13:41:38;15.20;99.90
21481;DHT22;10902;48.158;8.634;2024-01-27T13:44:24;15.30;99.90
21481;DHT22;10902;48.158;8.634;2024-01-27T13:47:09;15.20;99.90
21481;DHT22;10902;48.158;8.634;2024-01-27T13:49:55;14.90;99.90
21481;DHT22;10902;48.158;8.634;2024-01-27T13:52:41;14.80;99.90
21481;DHT22;10902;48.158;8.634;2024-01-27T13:55:28;14.70;99.90
21481;DHT22;10902;48.158;8.634;2024-01-27T13:58:14;14.50;99.90
21481;DHT22;10902;48.158;8.634;2024-01-27T14:00:59;14.70;99.90
21481;DHT22;10902;48.158;8.634;2024-01-27T14:03:45;14.60;99.90
21481;DHT22;10902;48.158;8.634;2024-01-27T14:06:31;14.40;99.90
21481;DHT22;10902;48.158;8.634;2024-01-27T14:09:16;14.20;99.90
21481;DHT22;10902;48.158;8.634;2024-01-27T14:12:03;14.70;99.90
21481;DHT22;10902;48.158;8.634;2024-01-27T14:14:49;14.30;99.90
21481;DHT22;10902;48.158;8.634;2024-01-27T14:17:36;14.50;99.90
21481;DHT22;10902;48.158;8.634;2024-01-27T14:20:21;14.40;99.90
21481;DHT22;10902;48.158;8.634;2024-01-27T14:23:08;14.20;99.90
21481;DHT22;10902;48.158;8.634;2024-01-27T14:25:54;14.20;99.90
21481;DHT22;10902;48.158;8.634;2024-01-27T14:28:40;14.20;99.90
21481;DHT22;10902;48.158;8.634;2024-01-27T14:31:26;14.00;99.90
21481;DHT22;10902;48.158;8.634;2024-01-27T14:34:12;13.80;99.90
21481;DHT22;10902;48.158;8.634;2024-01-27T14:36:59;13.70;99.90
21481;DHT22;10902;48.158;8.634;2024-01-27T14:39:47;13.70;99.90
21481;DHT22;10902;48.158;8.634;2024-01-27T14:42:33;13.30;99.90
21481;DHT22;10902;48.158;8.634;2024-01-27T14:45:21;12.50;99.90
21481;DHT22;10902;48.158;8.634;2024-01-27T14:48:07;12.00;99.90
21481;DHT22;10902;48.158;8.634;2024-01-27T14:50:53;11.50;99.90
21481;DHT22;10902;48.158;8.634;2024-01-27T14:53:42;11.50;99.90
21481;DHT22;10902;48.158;8.634;2024-01-27T14:56:28;11.50;99.90
21481;DHT22;10902;48.158;8.634;2024-01-27T14:59:13;11.20;99.90
21481;DHT22;10902;48.158;8.634;2024-01-27T15:01:59;11.30;99.90
21481;DHT22;10902;48.158;8.634;2024-01-27T15:04:44;11.40;99.90
21481;DHT22;10902;48.158;8.634;2024-01-27T15:07:30;11.40;99.90
21481;DHT22;10902;48.158;8.634;2024-01-27T15:10:16;11.30;99.90
21481;DHT22;10902;48.158;8.634;2024-01-27T15:13:01;11.30;99.90
21481;DHT22;10902;48.158;8.634;2024-01-27T15:15:48;10.90;99.90
21481;DHT22;10902;48.158;8.634;2024-01-27T15:18:34;10.60;99.90
21481;DHT22;10902;48.158;8.634;2024-01-27T15:21:22;10.40;99.90
21481;DHT22;10902;48.158;8.634;2024-01-27T15:24:07;10.10;99.90
21481;DHT22;10902;48.158;8.634;2024-01-27T15:26:53;10.10;99.90
21481;DHT22;10902;48.158;8.634;2024-01-27T15:29:39;10.10;99.90
21481;DHT22;10902;48.158;8.634;2024-01-27T15:32:24;9.80;99.90
21481;DHT22;10902;48.158;8.634;2024-01-27T15:35:12;9.20;99.90
21481;DHT22;10902;48.158;8.634;2024-01-27T15:37:59;8.10;99.90
21481;DHT22;10902;48.158;8.634;2024-01-27T15:40:45;7.10;99.90
21481;DHT22;10902;48.158;8.634;2024-01-27T15:43:30;6.50;99.90
21481;DHT22;10902;48.158;8.634;2024-01-27T15:46:16;6.10;99.90
21481;DHT22;10902;48.158;8.634;2024-01-27T15:49:02;5.80;99.90
21481;DHT22;10902;48.158;8.634;2024-01-27T15:51:47;5.60;99.90
21481;DHT22;10902;48.158;8.634;2024-01-27T15:54:33;5.30;99.90
21481;DHT22;10902;48.158;8.634;2024-01-27T15:57:19;5.40;99.90
21481;DHT22;10902;48.158;8.634;2024-01-27T16:00:05;5.80;99.90
21481;DHT22;10902;48.158;8.634;2024-01-27T16:02:55;5.60;99.90
21481;DHT22;10902;48.158;8.634;2024-01-27T16:05:41;5.10;99.90
21481;DHT22;10902;48.158;8.634;2024-01-27T16:08:26;4.80;99.90
21481;DHT22;10902;48.158;8.634;2024-01-27T16:11:12;4.60;99.90
21481;DHT22;10902;48.158;8.634;2024-01-27T16:13:58;4.40;99.90
21481;DHT22;10902;48.158;8.634;2024-01-27T16:16:43;4.10;99.90
21481;DHT22;10902;48.158;8.634;2024-01-27T16:19:29;3.90;99.90
21481;DHT22;10902;48.158;8.634;2024-01-27T16:22:15;3.60;99.90
21481;DHT22;10902;48.158;8.634;2024-01-27T16:25:02;3.70;99.90
21481;DHT22;10902;48.158;8.634;2024-01-27T16:27:48;3.70;99.90
21481;DHT22;10902;48.158;8.634;2024-01-27T16:30:34;3.50;99.90
21481;DHT22;10902;48.158;8.634;2024-01-27T16:33:20;3.40;99.90
21481;DHT22;10902;48.158;8.634;2024-01-27T16:36:06;3.30;99.90
21481;DHT22;10902;48.158;8.634;2024-01-27T16:38:52;3.20;99.90
21481;DHT22;10902;48.158;8.634;2024-01-27T16:41:37;3.20;99.90
21481;DHT22;10902;48.158;8.634;2024-01-27T16:44:23;3.10;99.90
21481;DHT22;10902;48.158;8.634;2024-01-27T16:47:09;2.80;99.90
21481;DHT22;10902;48.158;8.634;2024-01-27T16:49:54;2.50;99.90
21481;DHT22;10902;48.158;8.634;2024-01-27T16:52:40;2.30;99.90
21481;DHT22;10902;48.158;8.634;2024-01-27T16:55:26;2.00;99.90
21481;DHT22;10902;48.158;8.634;2024-01-27T16:58:11;1.80;99.90
21481;DHT22;10902;48.158;8.634;2024-01-27T17:00:57;1.60;99.90
21481;DHT22;10902;48.158;8.634;2024-01-27T17:03:43;1.50;99.90
21481;DHT22;10902;48.158;8.634;2024-01-27T17:06:29;1.60;99.90
21481;DHT22;10902;48.158;8.634;2024-01-27T17:09:14;1.50;99.90
21481;DHT22;10902;48.158;8.634;2024-01-27T17:12:00;1.40;99.90
21481;DHT22;10902;48.158;8.634;2024-01-27T17:14:46;1.40;99.90
21481;DHT22;10902;48.158;8.634;2024-01-27T17:17:33;1.20;99.90
21481;DHT22;10902;48.158;8.634;2024-01-27T17:20:19;1.40;99.90
21481;DHT22;10902;48.158;8.634;2024-01-27T17:23:05;1.30;99.90
21481;DHT22;10902;48.158;8.634;2024-01-27T17:25:50;1.10;99.90
21481;DHT22;10902;48.158;8.634;2024-01-27T17:28:36;1.10;99.90
21481;DHT22;10902;48.158;8.634;2024-01-27T17:31:21;1.10;99.90
21481;DHT22;10902;48.158;8.634;2024-01-27T17:34:07;1.20;99.90
21481;DHT22;10902;48.158;8.634;2024-01-27T17:36:53;1.50;99.90